createdAt,value
2019-02-02T00:01:01.172Z,1.32
2019-02-02T00:03:31.168Z,1.38
2019-02-02T00:06:01.169Z,1.24
2019-02-02T00:08:31.175Z,1.17
2019-02-02T00:11:01.230Z,1.23
2019-02-02T00:13:31.285Z,1.08
2019-02-02T00:16:01.456Z,1.12
2019-02-02T00:18:31.453Z,1.13
2019-02-02T00:21:02.351Z,1.15
2019-02-02T00:23:32.375Z,1.03
2019-02-02T00:26:02.383Z,1.16
2019-02-02T00:28:32.383Z,1.16
2019-02-02T00:31:02.413Z,1.25
2019-02-02T00:33:32.419Z,1.21
2019-02-02T00:36:02.444Z,1.28
2019-02-02T00:38:32.447Z,1.33
2019-02-02T00:41:02.471Z,1.27
2019-02-02T00:43:32.533Z,1.18
2019-02-02T00:46:02.747Z,0.94
2019-02-02T00:48:32.749Z,0.95
2019-02-02T00:51:02.764Z,0.89
2019-02-02T00:53:32.797Z,0.99
2019-02-02T00:56:02.802Z,1.16
2019-02-02T00:58:32.820Z,1.14
2019-02-02T01:01:02.973Z,0.96
2019-02-02T01:03:33.264Z,0.95
2019-02-02T01:06:04.942Z,0.95
2019-02-02T01:08:35.254Z,0.92
2019-02-02T01:11:07.148Z,1.04
2019-02-02T01:13:37.299Z,1.21
2019-02-02T01:16:07.507Z,1.27
2019-02-02T01:18:37.671Z,1.24
2019-02-02T01:21:07.737Z,1.10
2019-02-02T01:23:37.849Z,1.13
2019-02-02T01:26:07.951Z,0.98
2019-02-02T01:28:38.073Z,1.12
2019-02-02T01:31:08.163Z,1.16
2019-02-02T01:33:38.243Z,1.32
2019-02-02T01:36:08.279Z,1.36
2019-02-02T01:38:38.387Z,1.13
2019-02-02T01:41:08.451Z,1.18
2019-02-02T01:43:38.842Z,1.26
2019-02-02T01:46:09.023Z,1.15
2019-02-02T01:48:39.103Z,1.18
2019-02-02T01:51:09.763Z,1.23
2019-02-02T01:53:39.947Z,1.17
2019-02-02T01:56:10.031Z,1.38
2019-02-02T01:58:40.133Z,1.32
2019-02-02T02:01:10.223Z,1.33
2019-02-02T02:03:40.322Z,1.12
2019-02-02T02:06:10.386Z,1.24
2019-02-02T02:08:40.488Z,1.28
2019-02-02T02:11:10.550Z,1.22
2019-02-02T02:13:40.579Z,1.18
2019-02-02T02:16:10.588Z,1.26
2019-02-02T02:18:40.583Z,1.08
2019-02-02T02:21:10.591Z,0.98
2019-02-02T02:23:40.723Z,1.03
2019-02-02T02:26:10.724Z,0.87
2019-02-02T02:28:40.715Z,1.04
2019-02-02T02:31:10.733Z,1.08
2019-02-02T02:33:40.732Z,0.93
2019-02-02T02:36:10.729Z,0.76
2019-02-02T02:38:40.732Z,0.80
2019-02-02T02:41:10.747Z,0.68
2019-02-02T02:43:40.749Z,0.58
2019-02-02T02:46:10.886Z,0.67
2019-02-02T02:48:40.835Z,0.50
2019-02-02T02:51:10.845Z,0.54
2019-02-02T02:53:40.825Z,0.64
2019-02-02T02:56:10.853Z,0.36
2019-02-02T02:58:41.991Z,0.69
2019-02-02T03:01:12.141Z,0.72
2019-02-02T03:03:42.184Z,0.72
2019-02-02T03:06:12.195Z,0.83
2019-02-02T03:08:42.188Z,0.89
2019-02-02T03:11:12.212Z,0.84
2019-02-02T03:13:42.187Z,0.96
2019-02-02T03:16:12.293Z,1.01
2019-02-02T03:18:42.280Z,0.91
2019-02-02T03:21:12.297Z,0.89
2019-02-02T03:23:42.322Z,0.74
2019-02-02T03:26:12.345Z,0.78
2019-02-02T03:28:53.269Z,0.75
2019-02-02T03:31:14.053Z,1.03
2019-02-02T03:33:44.075Z,1.08
2019-02-02T03:36:14.074Z,1.00
2019-02-02T03:38:44.155Z,0.92
2019-02-02T03:41:14.156Z,1.02
2019-02-02T03:43:44.184Z,1.16
2019-02-02T03:46:14.266Z,1.27
2019-02-02T03:48:44.279Z,1.19
2019-02-02T03:51:14.266Z,1.13
2019-02-02T03:53:44.354Z,0.99
2019-02-02T03:56:14.438Z,0.97
2019-02-02T03:58:44.456Z,1.08
2019-02-02T04:01:14.482Z,0.83
2019-02-02T04:03:44.489Z,0.97
2019-02-02T04:06:14.512Z,0.82
2019-02-02T04:08:44.503Z,0.74
2019-02-02T04:11:14.504Z,0.91
2019-02-02T04:13:44.559Z,0.93
2019-02-02T04:16:14.584Z,1.04
2019-02-02T04:18:44.576Z,1.03
2019-02-02T04:21:14.588Z,0.80
2019-02-02T04:23:44.587Z,0.93
2019-02-02T04:26:14.652Z,0.89
2019-02-02T04:28:44.647Z,0.89
2019-02-02T04:31:14.701Z,1.14
2019-02-02T04:33:44.688Z,0.70
2019-02-02T04:36:14.707Z,0.86
2019-02-02T04:38:44.718Z,1.03
2019-02-02T04:41:14.748Z,0.86
2019-02-02T04:43:44.730Z,0.87
2019-02-02T04:46:14.765Z,1.14
2019-02-02T04:48:44.729Z,0.85
2019-02-02T04:51:14.716Z,0.95
2019-02-02T04:53:44.722Z,1.18
2019-02-02T04:56:14.719Z,1.26
2019-02-02T04:58:44.753Z,1.19
2019-02-02T05:01:14.756Z,1.18
2019-02-02T05:03:46.256Z,1.21
2019-02-02T05:06:16.261Z,1.35
2019-02-02T05:08:46.267Z,1.47
2019-02-02T05:11:16.254Z,1.53
2019-02-02T05:13:46.320Z,1.60
2019-02-02T05:16:16.312Z,1.53
2019-02-02T05:18:46.301Z,1.56
2019-02-02T05:21:16.304Z,1.53
2019-02-02T05:23:46.338Z,1.46
2019-02-02T05:26:16.437Z,1.18
2019-02-02T05:28:46.471Z,1.43
2019-02-02T05:31:17.018Z,1.40
2019-02-02T05:33:47.057Z,1.40
2019-02-02T05:36:17.056Z,1.28
2019-02-02T05:38:47.137Z,1.45
2019-02-02T05:41:17.136Z,1.21
2019-02-02T05:43:47.182Z,1.24
2019-02-02T05:46:17.197Z,1.10
2019-02-02T05:48:47.243Z,1.11
2019-02-02T05:51:17.275Z,1.06
2019-02-02T05:53:47.284Z,1.09
2019-02-02T05:56:17.327Z,1.03
2019-02-02T05:58:47.363Z,0.81
2019-02-02T06:01:20.302Z,0.88
2019-02-02T06:03:50.307Z,0.98
2019-02-02T06:06:20.559Z,0.88
2019-02-02T06:08:50.560Z,1.01
2019-02-02T06:11:20.591Z,1.03
2019-02-02T06:13:50.611Z,1.05
2019-02-02T06:16:20.602Z,1.06
2019-02-02T06:18:50.635Z,1.02
2019-02-02T06:21:20.760Z,1.11
2019-02-02T06:23:50.809Z,0.94
2019-02-02T06:26:21.447Z,0.99
2019-02-02T06:28:51.455Z,0.99
2019-02-02T06:31:21.435Z,1.10
2019-02-02T06:33:51.453Z,1.20
2019-02-02T06:36:21.429Z,1.22
2019-02-02T06:38:51.559Z,1.09
2019-02-02T06:41:21.570Z,1.35
2019-02-02T06:43:51.876Z,1.27
2019-02-02T06:46:21.871Z,1.31
2019-02-02T06:48:51.909Z,1.09
2019-02-02T06:51:21.929Z,1.13
2019-02-02T06:53:51.935Z,1.06
2019-02-02T06:56:22.053Z,0.93
2019-02-02T06:58:52.041Z,1.03
2019-02-02T07:01:22.064Z,1.07
2019-02-02T07:03:52.054Z,0.92
2019-02-02T07:06:22.091Z,0.86
2019-02-02T07:08:52.077Z,1.04
2019-02-02T07:11:22.129Z,0.74
2019-02-02T07:13:52.133Z,1.03
2019-02-02T07:16:22.215Z,1.08
2019-02-02T07:18:52.220Z,1.23
2019-02-02T07:21:23.069Z,1.28
2019-02-02T07:23:53.129Z,1.29
2019-02-02T07:26:23.233Z,0.89
2019-02-02T07:28:53.233Z,1.18
2019-02-02T07:31:23.252Z,0.97
2019-02-02T07:33:53.286Z,1.13
2019-02-02T07:36:23.323Z,1.01
2019-02-02T07:38:53.383Z,0.97
2019-02-02T07:41:23.386Z,1.17
2019-02-02T07:43:53.432Z,1.37
2019-02-02T07:46:23.462Z,1.45
2019-02-02T07:48:53.527Z,1.45
2019-02-02T07:51:23.629Z,1.41
2019-02-02T07:53:53.675Z,1.48
2019-02-02T07:56:23.722Z,1.57
2019-02-02T07:58:53.784Z,1.56
2019-02-02T08:01:23.817Z,1.61
2019-02-02T08:03:53.869Z,1.73
2019-02-02T08:06:23.897Z,1.65
2019-02-02T08:08:53.986Z,1.66
2019-02-02T08:11:24.022Z,1.58
2019-02-02T08:13:54.107Z,1.47
2019-02-02T08:16:24.237Z,1.43
2019-02-02T08:18:55.278Z,1.38
2019-02-02T08:21:25.389Z,1.55
2019-02-02T08:23:55.628Z,1.75
2019-02-02T08:26:25.677Z,1.63
2019-02-02T08:28:55.899Z,1.43
2019-02-02T08:31:25.925Z,1.61
2019-02-02T08:33:55.980Z,1.67
2019-02-02T08:36:26.125Z,1.64
2019-02-02T08:38:56.365Z,1.70
2019-02-02T08:41:26.450Z,1.63
2019-02-02T08:43:56.486Z,1.73
2019-02-02T08:46:26.555Z,1.74
2019-02-02T08:48:56.550Z,1.82
2019-02-02T08:51:26.578Z,2.09
2019-02-02T08:53:56.620Z,1.96
2019-02-02T08:56:26.769Z,2.09
2019-02-02T08:58:56.816Z,2.13
2019-02-02T09:01:27.280Z,2.22
2019-02-02T09:03:57.406Z,2.07
2019-02-02T09:06:38.303Z,1.55
2019-02-02T09:08:59.297Z,1.79
2019-02-02T09:11:29.427Z,1.94
2019-02-02T09:13:59.461Z,1.93
2019-02-02T09:16:29.750Z,1.96
2019-02-02T09:18:59.846Z,2.22
2019-02-02T09:21:31.207Z,2.29
2019-02-02T09:24:01.253Z,2.23
2019-02-02T09:26:31.270Z,2.30
2019-02-02T09:29:01.369Z,2.39
2019-02-02T09:31:31.511Z,2.32
2019-02-02T09:34:01.514Z,2.32
2019-02-02T09:36:31.540Z,2.30
2019-02-02T09:39:03.074Z,2.27
2019-02-02T09:41:33.096Z,2.47
2019-02-02T09:44:03.478Z,2.49
2019-02-02T09:46:33.492Z,2.22
2019-02-02T09:49:04.463Z,2.32
2019-02-02T09:51:37.550Z,2.42
2019-02-02T09:54:09.199Z,2.59
2019-02-02T09:56:39.670Z,2.19
2019-02-02T09:59:15.436Z,2.30
2019-02-02T10:01:45.438Z,2.35
2019-02-02T10:04:15.497Z,2.45
2019-02-02T10:06:45.535Z,2.30
2019-02-02T10:09:15.573Z,2.48
2019-02-02T10:11:53.293Z,2.31
2019-02-02T10:14:24.506Z,2.34
2019-02-02T10:16:54.535Z,2.07
2019-02-02T10:19:24.849Z,2.12
2019-02-02T10:21:54.894Z,2.10
2019-02-02T10:24:24.928Z,2.19
2019-02-02T10:27:05.546Z,2.24
2019-02-02T10:29:35.548Z,2.20
2019-02-02T10:32:05.590Z,2.27
2019-02-02T10:34:35.626Z,2.28
2019-02-02T10:37:05.650Z,2.24
2019-02-02T10:39:35.664Z,2.34
2019-02-02T10:42:06.125Z,2.46
2019-02-02T10:44:36.205Z,2.44
2019-02-02T10:47:06.248Z,2.47
2019-02-02T10:49:36.263Z,2.44
2019-02-02T10:52:06.348Z,2.43
2019-02-02T10:54:36.429Z,2.51
2019-02-02T10:57:06.461Z,2.65
2019-02-02T10:59:36.530Z,2.55
2019-02-02T11:02:08.139Z,2.41
2019-02-02T11:04:38.394Z,2.46
2019-02-02T11:07:08.492Z,2.71
2019-02-02T11:09:38.441Z,2.69
2019-02-02T11:12:08.478Z,2.65
2019-02-02T11:14:38.830Z,2.55
2019-02-02T11:17:08.947Z,2.72
2019-02-02T11:19:39.069Z,2.80
2019-02-02T11:22:09.091Z,2.69
2019-02-02T11:24:46.546Z,2.81
2019-02-02T11:27:16.635Z,2.72
2019-02-02T11:29:46.635Z,2.64
2019-02-02T11:32:19.706Z,2.71
2019-02-02T11:34:49.713Z,2.73
2019-02-02T11:37:19.907Z,2.71
2019-02-02T11:39:49.898Z,2.73
2019-02-02T11:42:19.941Z,2.88
2019-02-02T11:44:49.938Z,2.81
2019-02-02T11:47:19.986Z,2.86
2019-02-02T11:49:49.984Z,2.79
2019-02-02T11:52:22.876Z,2.88
2019-02-02T11:54:51.778Z,2.86
2019-02-02T11:57:31.907Z,2.90
2019-02-02T12:00:02.009Z,2.73
2019-02-02T12:02:32.075Z,2.93
2019-02-02T12:05:02.167Z,2.78
2019-02-02T12:07:32.218Z,3.03
2019-02-02T12:10:02.891Z,3.13
2019-02-02T12:12:32.949Z,3.07
2019-02-02T12:15:03.850Z,3.23
2019-02-02T12:17:33.949Z,3.18
2019-02-02T12:20:04.906Z,3.22
2019-02-02T12:22:34.997Z,3.19
2019-02-02T12:25:05.971Z,3.22
2019-02-02T12:27:36.060Z,3.34
2019-02-02T12:30:08.515Z,3.28
2019-02-02T12:32:38.544Z,3.08
2019-02-02T12:35:11.243Z,3.26
2019-02-02T12:37:41.261Z,2.84
2019-02-02T12:40:11.934Z,3.00
2019-02-02T12:42:41.979Z,3.15
2019-02-02T12:45:17.997Z,3.08
2019-02-02T12:47:48.094Z,3.24
2019-02-02T12:50:18.108Z,2.94
2019-02-02T12:52:48.265Z,3.14
2019-02-02T12:55:18.325Z,3.09
2019-02-02T12:57:48.353Z,3.21
2019-02-02T13:00:18.919Z,3.20
2019-02-02T13:02:48.898Z,3.30
2019-02-02T13:05:20.246Z,3.33
2019-02-02T13:07:50.394Z,3.26
2019-02-02T13:10:24.672Z,3.10
2019-02-02T13:12:54.680Z,3.24
2019-02-02T13:15:24.707Z,3.33
2019-02-02T13:17:54.721Z,3.34
2019-02-02T13:20:24.734Z,3.30
2019-02-02T13:22:54.737Z,3.28
2019-02-02T13:25:24.881Z,3.31
2019-02-02T13:27:54.961Z,3.10
2019-02-02T13:30:30.314Z,3.08
2019-02-02T13:33:00.415Z,3.12
2019-02-02T13:35:31.968Z,3.15
2019-02-02T13:38:01.996Z,3.21
2019-02-02T13:40:32.177Z,3.10
2019-02-02T13:43:02.203Z,3.27
2019-02-02T13:45:32.273Z,3.28
2019-02-02T13:48:03.421Z,2.95
2019-02-02T13:50:33.500Z,3.08
2019-02-02T13:53:03.595Z,3.11
2019-02-02T13:55:33.625Z,3.22
2019-02-02T13:58:03.633Z,3.37
2019-02-02T14:00:33.726Z,3.36
2019-02-02T14:03:04.235Z,3.27
2019-02-02T14:05:34.670Z,3.31
2019-02-02T14:08:06.286Z,3.36
2019-02-02T14:10:36.667Z,3.24
2019-02-02T14:13:07.574Z,3.35
2019-02-02T14:15:39.384Z,3.43
2019-02-02T14:18:09.537Z,3.15
2019-02-02T14:20:39.555Z,3.39
2019-02-02T14:23:09.653Z,3.34
2019-02-02T14:25:40.155Z,3.40
2019-02-02T14:28:10.283Z,3.42
2019-02-02T14:30:40.306Z,3.35
2019-02-02T14:33:14.399Z,3.53
2019-02-02T14:35:42.092Z,3.34
2019-02-02T14:38:12.218Z,3.56
2019-02-02T14:40:42.333Z,3.33
2019-02-02T14:43:12.386Z,3.04
2019-02-02T14:45:42.449Z,3.16
2019-02-02T14:48:12.531Z,3.22
2019-02-02T14:50:42.553Z,3.19
2019-02-02T14:53:12.723Z,3.28
2019-02-02T14:55:42.734Z,3.25
2019-02-02T14:58:12.798Z,3.24
2019-02-02T15:00:43.382Z,3.21
2019-02-02T15:03:25.225Z,3.31
2019-02-02T15:05:45.270Z,3.24
2019-02-02T15:08:15.443Z,3.15
2019-02-02T15:10:45.504Z,3.40
2019-02-02T15:13:15.630Z,3.35
2019-02-02T15:15:45.701Z,3.26
2019-02-02T15:18:15.725Z,3.30
2019-02-02T15:20:45.816Z,3.48
2019-02-02T15:23:15.842Z,3.52
2019-02-02T15:25:45.890Z,3.46
2019-02-02T15:28:15.912Z,3.49
2019-02-02T15:30:45.990Z,3.52
2019-02-02T15:33:16.010Z,3.46
2019-02-02T15:35:46.068Z,3.39
2019-02-02T15:38:18.896Z,3.68
2019-02-02T15:40:58.455Z,3.61
2019-02-02T15:43:22.222Z,3.51
2019-02-02T15:45:51.400Z,3.69
2019-02-02T15:48:21.436Z,3.48
2019-02-02T15:50:51.470Z,3.31
2019-02-02T15:53:21.531Z,3.57
2019-02-02T15:55:51.586Z,3.34
2019-02-02T15:58:21.664Z,3.39
2019-02-02T16:00:51.712Z,3.45
2019-02-02T16:03:21.732Z,3.35
2019-02-02T16:05:51.761Z,3.52
2019-02-02T16:08:21.772Z,3.44
2019-02-02T16:10:51.792Z,3.47
2019-02-02T16:13:21.878Z,3.38
2019-02-02T16:15:51.902Z,3.47
2019-02-02T16:18:22.013Z,3.39
2019-02-02T16:20:52.035Z,3.30
2019-02-02T16:23:22.105Z,3.44
2019-02-02T16:25:52.153Z,3.33
2019-02-02T16:28:22.164Z,3.49
2019-02-02T16:30:52.221Z,3.50
2019-02-02T16:33:22.238Z,3.62
2019-02-02T16:35:52.264Z,3.68
2019-02-02T16:38:22.262Z,3.55
2019-02-02T16:40:52.318Z,3.39
2019-02-02T16:43:22.477Z,3.25
2019-02-02T16:45:52.589Z,3.26
2019-02-02T16:48:22.606Z,3.47
2019-02-02T16:50:52.694Z,3.30
2019-02-02T16:53:22.704Z,3.63
2019-02-02T16:55:52.735Z,3.40
2019-02-02T16:58:22.756Z,3.35
2019-02-02T17:00:52.818Z,3.37
2019-02-02T17:03:23.028Z,3.18
2019-02-02T17:05:53.063Z,3.34
2019-02-02T17:08:23.146Z,3.42
2019-02-02T17:10:53.186Z,3.47
2019-02-02T17:13:31.382Z,3.26
2019-02-02T17:16:01.447Z,3.10
2019-02-02T17:18:31.477Z,3.37
2019-02-02T17:21:02.235Z,3.39
2019-02-02T17:23:32.249Z,3.41
2019-02-02T17:26:02.351Z,3.41
2019-02-02T17:28:32.386Z,3.53
2019-02-02T17:31:03.442Z,3.50
2019-02-02T17:33:33.494Z,3.47
2019-02-02T17:36:03.548Z,3.42
2019-02-02T17:38:33.667Z,3.39
2019-02-02T17:41:03.703Z,3.43
2019-02-02T17:43:33.830Z,3.55
2019-02-02T17:46:03.882Z,3.21
2019-02-02T17:48:33.931Z,3.42
2019-02-02T17:51:04.036Z,3.41
2019-02-02T17:53:34.826Z,3.48
2019-02-02T17:56:05.418Z,3.34
2019-02-02T17:58:39.643Z,3.26
2019-02-02T18:01:08.287Z,3.22
2019-02-02T18:03:38.327Z,3.18
2019-02-02T18:06:08.388Z,3.30
2019-02-02T18:08:38.406Z,3.36
2019-02-02T18:11:08.441Z,3.55
2019-02-02T18:13:38.499Z,3.56
2019-02-02T18:16:08.625Z,3.63
2019-02-02T18:18:38.645Z,3.42
2019-02-02T18:21:08.683Z,3.50
2019-02-02T18:23:38.753Z,3.55
2019-02-02T18:26:08.805Z,3.55
2019-02-02T18:28:38.905Z,3.58
2019-02-02T18:31:09.093Z,3.62
2019-02-02T18:33:39.112Z,3.53
2019-02-02T18:36:09.204Z,3.48
2019-02-02T18:38:39.242Z,3.62
2019-02-02T18:41:09.513Z,3.61
2019-02-02T18:43:39.603Z,3.55
2019-02-02T18:46:09.714Z,3.51
2019-02-02T18:48:39.731Z,3.54
2019-02-02T18:51:09.791Z,3.42
2019-02-02T18:53:39.845Z,3.52
2019-02-02T18:56:12.159Z,3.39
2019-02-02T18:58:42.224Z,3.50
2019-02-02T19:01:12.346Z,3.19
2019-02-02T19:03:42.458Z,3.49
2019-02-02T19:06:12.471Z,3.36
2019-02-02T19:08:43.404Z,3.52
2019-02-02T19:11:13.439Z,3.39
2019-02-02T19:13:43.555Z,3.47
2019-02-02T19:16:13.574Z,3.51
2019-02-02T19:18:43.669Z,3.38
2019-02-02T19:21:13.741Z,3.40
2019-02-02T19:23:43.729Z,3.46
2019-02-02T19:26:13.855Z,3.41
2019-02-02T19:28:43.861Z,3.51
2019-02-02T19:31:13.941Z,3.26
2019-02-02T19:33:43.946Z,3.32
2019-02-02T19:36:14.031Z,3.44
2019-02-02T19:38:44.054Z,3.32
2019-02-02T19:41:14.132Z,3.37
2019-02-02T19:43:44.123Z,3.39
2019-02-02T19:46:14.178Z,3.29
2019-02-02T19:48:44.201Z,3.25
2019-02-02T19:51:14.247Z,3.42
2019-02-02T19:53:44.278Z,3.54
2019-02-02T19:56:14.425Z,3.43
2019-02-02T19:58:44.430Z,3.27
2019-02-02T20:01:14.504Z,3.18
2019-02-02T20:03:44.625Z,3.13
2019-02-02T20:06:15.017Z,3.18
2019-02-02T20:08:45.019Z,3.43
2019-02-02T20:11:15.139Z,3.53
2019-02-02T20:13:45.287Z,3.40
2019-02-02T20:16:15.365Z,3.14
2019-02-02T20:18:46.252Z,3.33
2019-02-02T20:21:16.280Z,3.07
2019-02-02T20:23:46.331Z,3.14
2019-02-02T20:26:16.339Z,3.37
2019-02-02T20:28:46.843Z,3.15
2019-02-02T20:31:16.957Z,3.25
2019-02-02T20:33:46.989Z,3.11
2019-02-02T20:36:16.997Z,3.15
2019-02-02T20:38:47.064Z,3.16
2019-02-02T20:41:17.101Z,3.30
2019-02-02T20:43:47.200Z,3.30
2019-02-02T20:46:17.228Z,3.20
2019-02-02T20:48:47.285Z,3.29
2019-02-02T20:51:17.396Z,3.24
2019-02-02T20:53:47.470Z,3.16
2019-02-02T20:56:17.525Z,3.15
2019-02-02T20:58:47.603Z,3.24
2019-02-02T21:01:17.826Z,3.40
2019-02-02T21:03:47.886Z,3.38
2019-02-02T21:06:17.925Z,3.35
2019-02-02T21:08:47.974Z,3.29
2019-02-02T21:11:18.017Z,3.29
2019-02-02T21:13:48.266Z,3.34
2019-02-02T21:16:18.306Z,3.46
2019-02-02T21:18:48.432Z,3.49
2019-02-02T21:21:18.507Z,3.27
2019-02-02T21:23:48.649Z,3.29
2019-02-02T21:26:18.870Z,3.23
2019-02-02T21:28:50.474Z,3.33
2019-02-02T21:31:20.737Z,3.22
2019-02-02T21:33:50.879Z,3.25
2019-02-02T21:36:20.883Z,3.15
2019-02-02T21:38:51.069Z,3.25
2019-02-02T21:41:21.124Z,3.21
2019-02-02T21:43:51.142Z,3.04
2019-02-02T21:46:21.172Z,3.13
2019-02-02T21:48:51.187Z,3.33
2019-02-02T21:51:21.396Z,3.29
2019-02-02T21:53:51.396Z,3.42
2019-02-02T21:56:21.425Z,3.08
2019-02-02T21:58:51.455Z,3.29
2019-02-02T22:01:24.339Z,3.15
2019-02-02T22:03:53.255Z,3.24
2019-02-02T22:06:23.311Z,3.44
2019-02-02T22:08:53.295Z,3.52
2019-02-02T22:11:23.502Z,3.09
2019-02-02T22:13:53.519Z,3.26
2019-02-02T22:16:23.821Z,3.07
2019-02-02T22:18:53.887Z,3.20
2019-02-02T22:21:24.274Z,3.18
2019-02-02T22:23:54.915Z,3.24
2019-02-02T22:26:25.099Z,3.45
2019-02-02T22:28:57.799Z,3.07
2019-02-02T22:31:26.932Z,3.20
2019-02-02T22:33:56.958Z,3.20
2019-02-02T22:36:27.862Z,3.33
2019-02-02T22:38:57.992Z,3.20
2019-02-02T22:41:28.240Z,3.40
2019-02-02T22:43:58.254Z,3.22
2019-02-02T22:46:28.341Z,3.36
2019-02-02T22:48:58.424Z,3.40
2019-02-02T22:51:28.436Z,3.25
2019-02-02T22:53:58.530Z,3.42
2019-02-02T22:56:28.644Z,3.34
2019-02-02T22:58:58.756Z,3.28
2019-02-02T23:01:48.058Z,3.23
2019-02-02T23:04:55.406Z,3.16
2019-02-02T23:07:47.677Z,3.24
2019-02-02T23:11:07.689Z,3.03
2019-02-02T23:14:03.035Z,3.25
2019-02-02T23:16:33.108Z,3.31
2019-02-02T23:19:03.261Z,3.25
2019-02-02T23:21:33.417Z,3.34
2019-02-02T23:24:03.480Z,3.10
2019-02-02T23:26:33.557Z,3.30
2019-02-02T23:29:04.738Z,3.46
2019-02-02T23:31:37.465Z,3.61
2019-02-02T23:34:07.512Z,3.51
2019-02-02T23:36:37.515Z,3.50
2019-02-02T23:39:09.647Z,3.55
2019-02-02T23:41:40.338Z,3.48
2019-02-02T23:44:10.624Z,3.56
2019-02-02T23:46:40.736Z,3.47
2019-02-02T23:49:10.873Z,3.55
2019-02-02T23:51:40.944Z,3.69
2019-02-02T23:54:11.429Z,3.73
2019-02-02T23:56:41.570Z,3.42
2019-02-02T23:59:11.683Z,3.56
